Time;durP1;ratioP1;P1;durP2;ratioP2;P2;SDS_P1;SDS_P2;PMS_P1;PMS_P2;Temp;Humidity;BMP_temperature;BMP_pressure;BME280_temperature;BME280_humidity;BME280_pressure;Samples;Min_cycle;Max_cycle;Signal;HPM_P1;HPM_P2
2023/08/06 00:00:40;;;;;;;1.87;1.20;;;20.80;99.90;;;20.91;62.29;100055.09;4924988;28;97559;-41
2023/08/06 00:03:06;;;;;;;1.37;0.90;;;20.80;99.90;;;20.92;62.54;100043.41;4927756;28;97849;-43
2023/08/06 00:05:33;;;;;;;1.60;1.20;;;20.80;99.90;;;20.91;62.61;100044.38;4923143;28;113767;-40
2023/08/06 00:07:58;;;;;;;1.20;1.10;;;20.80;99.90;;;20.94;62.49;100034.22;4926165;28;97559;-44
2023/08/06 00:10:24;;;;;;;1.80;1.13;;;20.90;99.90;;;20.93;62.77;100034.38;4924110;28;98865;-42
2023/08/06 00:12:50;;;;;;;1.20;0.83;;;20.90;99.90;;;20.94;62.54;100039.59;4925523;28;98828;-48
2023/08/06 00:15:16;;;;;;;1.60;1.10;;;20.90;99.90;;;20.96;62.57;100037.63;4943910;28;97539;-41
2023/08/06 00:17:41;;;;;;;2.40;1.53;;;20.90;99.90;;;20.97;61.84;100036.63;4945316;28;103763;-41
2023/08/06 00:20:08;;;;;;;2.90;1.50;;;20.90;99.90;;;20.98;62.47;100033.00;4946932;28;97416;-40
2023/08/06 00:22:35;;;;;;;1.37;1.07;;;20.90;99.90;;;20.97;62.60;100033.94;4946252;28;96775;-40
2023/08/06 00:25:03;;;;;;;1.77;1.10;;;21.00;99.90;;;20.97;61.53;100027.75;4947299;28;97442;-41
2023/08/06 00:27:29;;;;;;;1.70;1.20;;;21.00;99.90;;;20.98;62.40;100027.63;4945143;28;96964;-42
2023/08/06 00:29:55;;;;;;;1.47;1.30;;;21.00;99.90;;;21.01;62.38;100034.56;4946361;28;97271;-40
2023/08/06 00:32:21;;;;;;;1.47;1.20;;;21.00;99.90;;;21.04;62.13;100029.75;4951854;28;97517;-41
2023/08/06 00:34:49;;;;;;;1.87;1.20;;;21.00;99.90;;;21.01;62.17;100023.81;4949783;28;97066;-43
2023/08/06 00:37:18;;;;;;;1.57;1.30;;;21.00;99.90;;;21.01;62.26;100035.41;4954954;28;97569;-40
2023/08/06 00:39:44;;;;;;;1.87;1.27;;;21.00;99.90;;;21.02;62.24;100029.03;4946845;28;97451;-41
2023/08/06 00:42:11;;;;;;;1.50;1.07;;;21.00;99.90;;;21.02;61.00;100031.72;4947735;28;101451;-41
2023/08/06 00:44:38;;;;;;;1.83;1.20;;;21.00;99.90;;;21.02;62.18;100030.88;4931669;28;98804;-42
2023/08/06 00:47:06;;;;;;;1.80;1.20;;;21.00;99.90;;;21.02;61.61;100028.19;4944838;28;97336;-40
2023/08/06 00:49:32;;;;;;;1.97;1.40;;;21.00;99.90;;;21.03;62.39;100030.75;4947062;28;97265;-41
2023/08/06 00:51:58;;;;;;;2.00;1.47;;;21.00;99.90;;;21.03;62.39;100028.06;4944818;28;97007;-40
2023/08/06 00:54:25;;;;;;;2.00;1.10;;;21.00;99.90;;;21.01;62.28;100030.03;4947021;28;97276;-42
2023/08/06 00:56:50;;;;;;;1.13;1.00;;;21.00;99.90;;;21.05;62.09;100031.44;4950489;28;107334;-44
2023/08/06 00:59:16;;;;;;;1.43;0.83;;;21.00;99.90;;;21.04;62.09;100024.38;4948628;28;107090;-41
2023/08/06 01:01:43;;;;;;;3.63;1.03;;;21.00;99.90;;;21.05;61.91;100031.44;4955967;28;105012;-42
2023/08/06 01:04:08;;;;;;;1.60;1.03;;;21.00;99.90;;;21.02;61.25;100031.72;4942050;28;98738;-43
2023/08/06 01:06:49;;;;;;;1.83;1.00;;;21.00;99.90;;;21.02;61.83;100034.41;4946538;28;97198;-40
2023/08/06 01:09:30;;;;;;;1.13;0.90;;;21.00;99.90;;;21.02;61.80;100026.38;4946425;28;98666;-43
2023/08/06 01:12:38;;;;;;;1.07;0.97;;;21.00;99.90;;;20.97;62.28;100017.03;4946342;28;101639;-41
2023/08/06 01:15:17;;;;;;;1.10;1.00;;;21.00;99.90;;;20.99;62.40;100020.44;4944231;28;101829;-44
2023/08/06 01:17:45;;;;;;;1.27;0.90;;;21.00;99.90;;;20.98;62.38;100016.06;4946288;28;97405;-46
2023/08/06 01:20:10;;;;;;;0.93;0.73;;;21.00;99.90;;;20.99;61.63;100005.19;4946788;28;98217;-40
2023/08/06 01:22:36;;;;;;;1.10;1.00;;;21.00;99.90;;;21.00;62.33;100012.25;4946937;28;97510;-43
2023/08/06 01:25:02;;;;;;;1.27;1.10;;;21.00;99.90;;;20.99;62.33;100010.56;4948976;28;113971;-41
2023/08/06 01:27:48;;;;;;;1.60;0.90;;;21.00;99.90;;;20.99;62.33;100015.91;4950943;28;97083;-40
2023/08/06 01:30:26;;;;;;;2.40;1.00;;;21.00;99.90;;;21.03;61.78;100014.66;4946054;28;97426;-41
2023/08/06 01:32:58;;;;;;;1.60;0.90;;;21.00;99.90;;;20.97;61.56;100012.50;4943480;28;102137;-43
2023/08/06 01:35:27;;;;;;;1.53;1.07;;;20.90;99.90;;;20.96;62.15;100000.09;4951819;28;97535;-41
2023/08/06 01:37:53;;;;;;;1.53;1.10;;;20.90;99.90;;;20.99;62.15;100005.19;4949774;28;97319;-40
2023/08/06 01:40:18;;;;;;;3.17;1.33;;;20.90;99.90;;;20.95;59.99;100002.91;4948211;28;97333;-41
2023/08/06 01:42:44;;;;;;;2.27;1.20;;;20.90;99.90;;;20.96;61.40;100000.09;4947879;28;105139;-42
2023/08/06 01:45:10;;;;;;;1.37;1.10;;;20.80;99.90;;;20.90;61.36;99995.28;4944458;28;111935;-41
2023/08/06 01:47:36;;;;;;;1.27;0.93;;;20.80;99.90;;;20.86;62.56;99993.88;4933911;28;100154;-41
2023/08/06 01:50:03;;;;;;;1.63;0.97;;;20.70;99.90;;;20.85;61.84;99991.34;4945808;28;97386;-41
2023/08/06 01:52:28;;;;;;;1.37;0.93;;;20.70;99.90;;;20.81;61.82;99990.72;4946724;28;99626;-41
2023/08/06 01:54:55;;;;;;;1.83;1.43;;;20.60;99.90;;;20.81;62.53;99993.41;4946406;28;97107;-42
2023/08/06 01:57:21;;;;;;;0.87;0.80;;;20.70;99.90;;;20.83;62.65;99982.56;4950749;28;97351;-43
2023/08/06 01:59:47;;;;;;;1.80;1.10;;;20.70;99.90;;;20.85;62.39;99980.59;4956687;28;97326;-42
2023/08/06 02:02:12;;;;;;;1.00;0.87;;;20.70;99.90;;;20.84;62.71;99979.75;4951989;28;100853;-41
2023/08/06 02:04:38;;;;;;;1.53;1.10;;;20.80;99.90;;;20.88;62.62;99978.50;4955330;28;98997;-43
2023/08/06 02:07:04;;;;;;;0.83;0.80;;;20.80;99.90;;;20.86;60.54;99972.44;4953499;28;97202;-42
2023/08/06 02:09:30;;;;;;;1.13;1.03;;;20.80;99.90;;;20.88;62.17;99981.19;4951570;28;97470;-44
2023/08/06 02:11:55;;;;;;;1.10;1.00;;;20.80;99.90;;;20.88;62.22;99970.47;4951646;28;107879;-46
2023/08/06 02:14:21;;;;;;;1.77;1.00;;;20.80;99.90;;;20.86;62.68;99966.22;4949436;28;104022;-40
2023/08/06 02:16:47;;;;;;;1.27;0.87;;;20.80;99.90;;;20.88;62.38;99967.78;4955599;28;111297;-41
2023/08/06 02:19:13;;;;;;;1.73;1.23;;;20.80;99.90;;;20.88;62.28;99970.47;4951439;28;96948;-40
2023/08/06 02:21:39;;;;;;;1.27;0.97;;;20.80;99.90;;;20.88;61.70;99966.94;4953406;28;110613;-40
2023/08/06 02:24:04;;;;;;;1.67;0.97;;;20.80;99.90;;;20.88;62.40;99970.47;4944622;28;97507;-42
2023/08/06 02:26:30;;;;;;;1.23;1.07;;;20.80;99.90;;;20.89;62.13;99972.16;4950153;28;97322;-41
2023/08/06 02:28:56;;;;;;;1.60;1.20;;;20.80;99.90;;;20.90;62.37;99968.47;4949488;28;97221;-41
2023/08/06 02:31:22;;;;;;;1.27;1.00;;;20.80;99.90;;;20.92;61.78;99971.88;4956127;28;99155;-41
2023/08/06 02:33:47;;;;;;;2.07;0.90;;;20.80;99.90;;;20.94;62.35;99980.63;4952386;28;97343;-44
2023/08/06 02:36:13;;;;;;;0.90;0.63;;;20.90;99.90;;;20.94;62.31;99972.56;4949499;28;102817;-41
2023/08/06 02:38:39;;;;;;;0.90;0.73;;;20.90;99.90;;;20.94;62.24;99958.31;4950758;28;97120;-41
2023/08/06 02:41:05;;;;;;;1.50;1.20;;;20.90;99.90;;;20.96;62.31;99962.56;4932587;28;114420;-40
2023/08/06 02:43:31;;;;;;;1.93;1.00;;;20.90;99.90;;;20.96;62.05;99957.19;4948108;28;115361;-40
2023/08/06 02:46:01;;;;;;;1.17;0.90;;;21.00;99.90;;;20.96;60.07;99957.19;4955763;28;96897;-41
2023/08/06 02:48:27;;;;;;;0.73;0.70;;;20.90;99.90;;;20.95;62.01;99955.50;4949865;28;97373;-40
2023/08/06 02:50:53;;;;;;;1.07;0.97;;;20.90;99.90;;;20.87;61.96;99960.72;4960396;28;96818;-40
2023/08/06 02:53:19;;;;;;;0.97;0.80;;;20.80;99.90;;;20.88;62.20;99949.00;4956058;28;97155;-41
2023/08/06 02:55:48;;;;;;;1.20;1.10;;;20.80;99.90;;;20.85;60.38;99943.94;4955391;28;96752;-41
2023/08/06 02:58:17;;;;;;;2.17;0.80;;;20.80;99.90;;;20.87;60.34;99941.13;4952118;28;97482;-40
2023/08/06 03:00:44;;;;;;;0.93;0.87;;;20.80;99.90;;;20.87;62.58;99941.97;4952087;28;98049;-42
2023/08/06 03:03:10;;;;;;;1.17;0.90;;;20.80;99.90;;;20.87;62.22;99931.25;4943226;28;97268;-40
2023/08/06 03:05:35;;;;;;;0.83;0.70;;;20.80;99.90;;;20.85;61.83;99933.22;4949201;28;96932;-40
2023/08/06 03:08:01;;;;;;;1.70;0.90;;;20.80;99.90;;;20.85;62.59;99927.00;4953594;28;97393;-41
2023/08/06 03:10:27;;;;;;;1.07;0.87;;;20.80;99.90;;;20.86;62.55;99929.53;4948391;28;97515;-40
2023/08/06 03:12:53;;;;;;;0.97;0.87;;;20.80;99.90;;;20.87;62.34;99925.03;4949471;28;97270;-40
2023/08/06 03:15:18;;;;;;;1.40;1.10;;;20.80;99.90;;;20.88;62.59;99921.38;4959776;28;104731;-43
2023/08/06 03:17:44;;;;;;;1.20;0.93;;;20.80;99.90;;;20.91;62.30;99921.94;4945199;28;97351;-41
2023/08/06 03:20:10;;;;;;;2.03;0.90;;;20.90;99.90;;;20.92;61.62;99928.97;4957664;28;102044;-41
2023/08/06 03:22:36;;;;;;;1.13;0.80;;;20.90;99.90;;;20.85;62.20;99921.66;4952388;28;97072;-41
2023/08/06 03:25:03;;;;;;;1.10;0.80;;;20.80;99.90;;;20.85;62.61;99924.31;4951415;28;97398;-42
2023/08/06 03:27:28;;;;;;;0.80;0.73;;;20.80;99.90;;;20.86;62.31;99928.69;4952414;28;97124;-41
2023/08/06 03:29:54;;;;;;;1.07;0.97;;;20.80;99.90;;;20.84;62.49;99923.47;4952960;28;96959;-40
2023/08/06 03:32:20;;;;;;;1.33;0.87;;;20.80;99.90;;;20.86;61.11;99921.50;4954618;28;96981;-45
2023/08/06 03:34:46;;;;;;;1.00;0.90;;;20.80;99.90;;;20.88;62.31;99921.38;4948904;28;101722;-40
2023/08/06 03:37:12;;;;;;;0.90;0.90;;;20.80;99.90;;;20.91;62.31;99919.25;4910389;28;97829;-43
2023/08/06 03:39:38;;;;;;;1.17;0.90;;;20.90;99.90;;;20.93;62.15;99914.59;4949007;28;97380;-42
2023/08/06 03:42:04;;;;;;;1.23;0.90;;;20.90;99.90;;;20.93;62.10;99925.31;4946204;28;97473;-43
2023/08/06 03:44:30;;;;;;;1.30;0.97;;;20.80;99.90;;;20.86;60.71;99924.19;4951440;28;97019;-43
2023/08/06 03:46:56;;;;;;;1.40;1.07;;;20.80;99.90;;;20.80;61.19;99924.72;4953294;28;97364;-41
2023/08/06 03:49:22;;;;;;;0.90;0.67;;;20.70;99.90;;;20.72;62.28;99927.25;4950186;28;115513;-41
2023/08/06 03:51:47;;;;;;;1.37;1.10;;;20.60;99.90;;;20.74;62.83;99925.28;4952004;28;102493;-41
2023/08/06 03:54:13;;;;;;;1.70;0.87;;;20.60;99.90;;;20.76;62.76;99923.31;4946763;28;98006;-40
2023/08/06 03:56:39;;;;;;;1.13;0.80;;;20.70;99.90;;;20.77;62.84;99922.31;4946648;28;104041;-41
2023/08/06 03:59:05;;;;;;;1.30;1.00;;;20.70;99.90;;;20.81;62.65;99921.06;4950818;28;98849;-41
2023/08/06 04:01:30;;;;;;;1.73;0.90;;;20.80;99.90;;;20.82;62.19;99920.06;4945765;28;113051;-40
2023/08/06 04:03:56;;;;;;;1.70;1.00;;;20.80;99.90;;;20.84;62.52;99919.94;4948351;28;107042;-42
2023/08/06 04:06:22;;;;;;;1.00;0.70;;;20.80;99.90;;;20.86;62.42;99923.34;4952871;28;106254;-45
2023/08/06 04:08:47;;;;;;;1.67;1.10;;;20.80;99.90;;;20.85;62.32;99922.50;4955147;28;97642;-40
2023/08/06 04:11:13;;;;;;;1.33;1.00;;;20.80;99.90;;;20.86;62.34;99926.88;4950118;28;114442;-41
2023/08/06 04:13:44;;;;;;;1.87;1.20;;;20.80;99.90;;;20.86;61.14;99924.19;4951415;28;97540;-41
2023/08/06 04:16:09;;;;;;;1.77;1.07;;;20.80;99.90;;;20.82;62.23;99922.75;4945163;28;97321;-42
2023/08/06 04:18:35;;;;;;;1.47;1.20;;;20.70;99.90;;;20.84;62.53;99923.47;4946211;28;98392;-40
2023/08/06 04:21:02;;;;;;;1.13;0.87;;;20.70;99.90;;;20.84;62.41;99928.84;4951347;28;97358;-42
2023/08/06 04:23:28;;;;;;;1.60;1.20;;;20.70;99.90;;;20.83;62.71;99929.81;4949442;28;97002;-41
2023/08/06 04:25:57;;;;;;;1.10;0.90;;;20.70;99.90;;;20.80;62.67;99925.56;4949413;28;108940;-40
2023/08/06 04:28:23;;;;;;;2.20;1.10;;;20.70;99.90;;;20.80;62.43;99930.06;4948172;28;97916;-40
2023/08/06 04:30:49;;;;;;;1.60;0.90;;;20.70;99.90;;;20.82;62.14;99924.56;4952620;28;97142;-40
2023/08/06 04:33:14;;;;;;;1.63;0.90;;;20.80;99.90;;;20.83;61.73;99927.16;4945883;28;102272;-41
2023/08/06 04:35:40;;;;;;;2.10;0.93;;;20.80;99.90;;;20.82;62.64;99921.91;4941452;28;96984;-42
2023/08/06 04:38:06;;;;;;;3.80;1.20;;;20.70;99.90;;;20.79;61.81;99923.03;4947013;28;115810;-41
2023/08/06 04:40:35;;;;;;;1.53;0.80;;;20.70;99.90;;;20.71;62.32;99920.19;4934064;28;99358;-41
2023/08/06 04:43:01;;;;;;;1.50;1.00;;;20.60;99.90;;;20.71;63.02;99925.56;4951055;28;97801;-41
2023/08/06 04:45:27;;;;;;;1.13;1.00;;;20.50;99.90;;;20.63;63.47;99930.75;4951471;28;97403;-41
2023/08/06 04:47:53;;;;;;;0.93;0.83;;;20.40;99.90;;;20.61;63.67;99930.03;4952017;28;108408;-42
2023/08/06 04:50:20;;;;;;;1.43;0.90;;;20.40;99.90;;;20.62;63.50;99921.00;4952974;28;97541;-44
2023/08/06 04:52:46;;;;;;;1.37;1.00;;;20.40;99.90;;;20.64;62.90;99929.75;4943099;28;97290;-41
2023/08/06 04:55:12;;;;;;;1.20;0.80;;;20.50;99.90;;;20.61;63.32;99924.69;4950598;28;97293;-41
2023/08/06 04:57:37;;;;;;;1.00;0.90;;;20.40;99.90;;;20.65;63.35;99926.09;4947643;28;98383;-42
2023/08/06 05:00:05;;;;;;;0.70;0.70;;;20.50;99.90;;;20.67;63.44;99921.44;4947075;28;103099;-41
2023/08/06 05:02:32;;;;;;;2.20;0.80;;;20.50;99.90;;;20.68;63.18;99925.81;4943430;28;97312;-42
2023/08/06 05:04:58;;;;;;;1.30;0.57;;;20.60;99.90;;;20.71;63.22;99933.59;4951670;28;96920;-41
2023/08/06 05:07:24;;;;;;;1.13;0.80;;;20.60;99.90;;;20.65;62.88;99923.41;4950144;28;97027;-43
2023/08/06 05:09:50;;;;;;;2.00;0.90;;;20.50;99.90;;;20.60;63.71;99934.53;4946198;28;98425;-42
2023/08/06 05:12:15;;;;;;;5.07;0.90;;;20.40;99.90;;;20.58;63.91;99930.31;4949084;28;97485;-44
2023/08/06 05:14:41;;;;;;;1.60;1.03;;;20.40;99.90;;;20.54;64.36;99923.50;4941048;28;100782;-46
2023/08/06 05:17:07;;;;;;;0.80;0.60;;;20.30;99.90;;;20.53;64.44;99929.84;4940889;28;104868;-42
2023/08/06 05:19:33;;;;;;;1.23;0.90;;;20.30;99.90;;;20.51;64.25;99930.00;4939974;28;97709;-43
2023/08/06 05:21:58;;;;;;;1.63;0.80;;;20.30;99.90;;;20.54;63.86;99931.53;4942154;28;104818;-40
2023/08/06 05:24:24;;;;;;;1.40;0.90;;;20.30;99.90;;;20.59;63.56;99926.66;4947192;28;97179;-42
2023/08/06 05:26:50;;;;;;;1.60;1.10;;;20.50;99.90;;;20.63;63.36;99928.06;4943488;28;97682;-43
2023/08/06 05:29:16;;;;;;;2.17;0.87;;;20.50;99.90;;;20.67;63.30;99924.97;4947504;28;99961;-42
2023/08/06 05:31:42;;;;;;;1.37;0.93;;;20.60;99.90;;;20.70;63.09;99923.88;4948760;28;97364;-40
2023/08/06 05:34:08;;;;;;;1.10;0.90;;;20.60;99.90;;;20.74;63.09;99931.50;4950587;28;96785;-40
2023/08/06 05:36:34;;;;;;;0.73;0.50;;;20.60;99.90;;;20.76;63.17;99934.88;4949243;28;97678;-40
2023/08/06 05:38:59;;;;;;;1.57;1.07;;;20.70;99.90;;;20.80;62.81;99935.44;4949545;28;97141;-41
2023/08/06 05:41:25;;;;;;;0.97;0.70;;;20.80;99.90;;;20.84;62.68;99930.66;4952913;28;98726;-42
2023/08/06 05:43:51;;;;;;;0.80;0.60;;;20.80;99.90;;;20.85;62.59;99938.56;4952552;28;96796;-44
2023/08/06 05:46:17;;;;;;;1.40;1.00;;;20.80;99.90;;;20.84;62.85;99936.03;4945706;28;111029;-41
2023/08/06 05:48:42;;;;;;;1.00;0.60;;;20.90;99.90;;;20.87;62.57;99936.59;4946855;28;106937;-41
2023/08/06 05:51:08;;;;;;;0.70;0.70;;;20.90;99.90;;;20.89;62.39;99934.63;4937583;28;111211;-41
2023/08/06 05:53:34;;;;;;;1.17;0.90;;;20.90;99.90;;;20.90;62.63;99936.31;4939529;28;97235;-44
2023/08/06 05:56:00;;;;;;;1.03;0.70;;;20.90;99.90;;;20.93;62.19;99936.03;4945894;28;98957;-44
2023/08/06 05:58:28;;;;;;;2.07;0.70;;;20.90;99.90;;;20.94;62.27;99935.03;4944272;28;99323;-40
2023/08/06 06:00:54;;;;;;;1.20;0.70;;;20.90;99.90;;;20.92;62.55;99936.19;4947114;28;97207;-41
2023/08/06 06:03:20;;;;;;;1.67;1.10;;;20.90;99.90;;;20.90;62.50;99941.69;4947130;28;97231;-41
2023/08/06 06:05:46;;;;;;;0.93;0.60;;;20.80;99.90;;;20.90;62.64;99941.69;4944081;28;102201;-41
2023/08/06 06:08:12;;;;;;;1.13;0.87;;;20.80;99.90;;;20.93;62.37;99944.06;4949303;28;97595;-42
2023/08/06 06:10:37;;;;;;;0.87;0.60;;;20.90;99.90;;;20.94;61.93;99944.91;4953588;28;108977;-40
2023/08/06 06:13:03;;;;;;;1.03;0.90;;;20.90;99.90;;;20.94;62.28;99948.44;4944538;28;98065;-41
2023/08/06 06:15:29;;;;;;;0.90;0.50;;;20.90;99.90;;;20.93;62.26;99946.75;4952239;28;97477;-41
2023/08/06 06:17:55;;;;;;;1.33;0.73;;;20.90;99.90;;;20.94;62.27;99945.75;4952592;28;98198;-40
2023/08/06 06:20:20;;;;;;;1.30;0.73;;;21.00;99.90;;;20.94;62.25;99943.09;4955944;28;103015;-43
2023/08/06 06:22:46;;;;;;;2.00;0.80;;;21.00;99.90;;;20.97;62.30;99941.97;4943665;28;97118;-42
2023/08/06 06:25:12;;;;;;;3.07;0.57;;;21.00;99.90;;;20.97;62.00;99956.22;4951941;28;98851;-41
2023/08/06 06:27:38;;;;;;;1.57;0.90;;;21.00;99.90;;;20.99;62.39;99956.94;4943956;28;97185;-41
2023/08/06 06:30:04;;;;;;;0.83;0.50;;;21.00;99.90;;;20.93;62.76;99954.78;4946759;28;112831;-40
2023/08/06 06:32:30;;;;;;;1.23;0.90;;;20.80;99.90;;;20.95;62.44;99955.50;4943153;28;97419;-41
2023/08/06 06:34:55;;;;;;;1.10;0.70;;;20.90;99.90;;;20.93;62.09;99957.47;4947216;28;104904;-41
2023/08/06 06:37:21;;;;;;;0.93;0.60;;;20.90;99.90;;;20.93;62.28;99962.00;4946981;28;98065;-40
2023/08/06 06:39:47;;;;;;;0.80;0.77;;;20.80;99.90;;;20.94;62.36;99959.16;4947324;28;97377;-41
2023/08/06 06:42:14;;;;;;;1.30;0.70;;;20.90;99.90;;;20.95;62.22;99960.03;4945789;28;97497;-43
2023/08/06 06:44:40;;;;;;;1.40;0.93;;;20.90;99.90;;;20.93;62.29;99957.47;4944183;28;97477;-41
2023/08/06 06:47:06;;;;;;;0.93;0.70;;;20.90;99.90;;;20.96;62.21;99957.19;4945033;28;116159;-42
2023/08/06 06:49:32;;;;;;;0.90;0.60;;;20.90;99.90;;;20.99;62.30;99964.13;4948294;28;98595;-40
2023/08/06 06:51:57;;;;;;;0.93;0.70;;;21.00;99.90;;;20.97;62.15;99961.56;4946628;28;97368;-42
2023/08/06 06:54:23;;;;;;;0.90;0.80;;;20.90;99.90;;;20.96;62.49;99959.88;4954129;28;97484;-41
2023/08/06 06:56:49;;;;;;;0.90;0.57;;;20.90;99.90;;;20.95;62.37;99960.88;4952747;28;97744;-42
2023/08/06 06:59:15;;;;;;;1.00;0.83;;;20.90;99.90;;;20.95;62.22;99968.91;4948286;28;97516;-40
2023/08/06 07:01:40;;;;;;;1.67;0.70;;;20.90;99.90;;;20.95;62.92;99966.22;4956245;28;99068;-41
2023/08/06 07:04:06;;;;;;;0.67;0.57;;;20.90;99.90;;;20.92;62.43;99969.19;4952700;28;118799;-41
2023/08/06 07:06:32;;;;;;;1.10;0.90;;;20.80;99.90;;;20.91;62.73;99967.50;4958284;28;97934;-40
2023/08/06 07:08:58;;;;;;;1.37;0.77;;;20.80;99.90;;;20.90;63.95;99965.81;4959031;28;104502;-41
2023/08/06 07:11:23;;;;;;;2.33;1.10;;;20.80;99.90;;;20.81;64.80;99969.28;4953650;28;96963;-41
2023/08/06 07:13:56;;;;;;;1.53;0.83;;;20.70;99.90;;;20.69;65.76;99970.41;4946926;28;97470;-43
2023/08/06 07:16:22;;;;;;;1.93;1.10;;;20.50;99.90;;;20.56;66.49;99964.44;4943881;28;104090;-46
2023/08/06 07:18:48;;;;;;;1.10;0.53;;;20.30;99.90;;;20.56;65.77;99969.78;4951815;28;97489;-43
2023/08/06 07:21:14;;;;;;;1.07;0.70;;;20.30;99.90;;;20.54;65.72;99971.72;4937989;28;97403;-42
2023/08/06 07:23:39;;;;;;;1.93;1.10;;;20.20;99.90;;;20.45;67.42;99974.25;4940363;28;97696;-42
2023/08/06 07:26:05;;;;;;;5.43;1.10;;;20.20;99.90;;;20.37;67.61;99976.69;4946329;28;104445;-44
2023/08/06 07:28:31;;;;;;;2.43;0.90;;;20.10;99.90;;;20.32;68.23;99973.59;4926683;28;97605;-40
2023/08/06 07:30:57;;;;;;;2.03;1.30;;;20.00;99.90;;;20.29;68.73;99978.38;4923099;28;99729;-44
2023/08/06 07:33:22;;;;;;;1.50;1.20;;;20.00;99.90;;;20.26;68.97;99979.50;4924141;28;98226;-44
2023/08/06 07:35:48;;;;;;;2.67;1.47;;;19.90;99.90;;;20.24;68.47;99981.41;4931877;28;97552;-44
2023/08/06 07:38:14;;;;;;;1.60;1.30;;;19.90;99.90;;;20.18;68.63;99979.28;4929624;28;98134;-41
2023/08/06 07:40:40;;;;;;;1.70;1.13;;;19.90;99.90;;;20.05;68.07;99975.97;4926010;28;97364;-42
2023/08/06 07:43:06;;;;;;;2.57;1.70;;;19.80;99.90;;;20.01;69.02;99974.53;4926715;28;97353;-42
2023/08/06 07:45:35;;;;;;;5.10;1.90;;;19.70;99.90;;;19.98;69.10;99972.97;4924178;28;114394;-40
2023/08/06 07:48:02;;;;;;;2.33;1.40;;;19.70;99.90;;;19.98;68.69;99972.13;4924077;28;97097;-42
2023/08/06 07:50:28;;;;;;;2.97;1.50;;;19.70;99.90;;;20.02;69.07;99970.88;4926626;28;97180;-43
2023/08/06 07:52:53;;;;;;;1.83;1.53;;;19.70;99.90;;;19.98;69.88;99985.50;4928090;28;97987;-41
2023/08/06 07:55:19;;;;;;;2.37;1.50;;;19.70;99.90;;;19.92;69.57;99984.19;4932011;28;116080;-40
2023/08/06 07:57:45;;;;;;;2.13;1.47;;;19.60;99.90;;;19.90;70.07;99978.97;4925563;28;97916;-43
2023/08/06 08:00:11;;;;;;;1.10;1.00;;;19.60;99.90;;;19.94;68.58;99987.59;4926121;28;98431;-41
2023/08/06 08:02:37;;;;;;;3.50;1.23;;;19.60;99.90;;;19.97;69.97;99989.16;4926523;28;98876;-42
2023/08/06 08:05:03;;;;;;;1.93;1.40;;;19.70;99.90;;;20.02;71.21;99987.78;4926720;28;98196;-42
2023/08/06 08:07:30;;;;;;;1.87;1.40;;;19.80;99.90;;;20.03;70.77;99978.78;4924958;28;97458;-40
2023/08/06 08:09:56;;;;;;;1.70;1.40;;;19.80;99.90;;;20.02;70.62;99987.78;4926015;28;97584;-43
2023/08/06 08:12:22;;;;;;;1.53;1.40;;;19.80;99.90;;;20.00;70.56;99987.06;4895348;28;98734;-49
2023/08/06 08:14:48;;;;;;;1.63;1.40;;;19.80;99.90;;;19.99;70.64;99992.56;4911183;28;102301;-43
2023/08/06 08:17:14;;;;;;;1.63;1.10;;;19.70;99.90;;;19.89;70.77;99998.69;4922714;28;97620;-40
2023/08/06 08:19:43;;;;;;;2.00;1.07;;;19.70;99.90;;;19.91;70.69;99995.88;4922528;28;97289;-40
2023/08/06 08:22:09;;;;;;;1.83;1.50;;;19.60;99.90;;;20.00;69.32;99999.59;4926979;28;97380;-42
2023/08/06 08:24:35;;;;;;;2.87;1.20;;;19.70;99.90;;;20.01;70.28;99995.94;4925562;28;98110;-44
2023/08/06 08:27:01;;;;;;;1.27;1.13;;;19.70;99.90;;;20.03;69.12;99996.66;4925743;28;97490;-43
2023/08/06 08:29:26;;;;;;;2.20;1.30;;;19.80;99.90;;;20.05;69.16;100002.72;4923303;28;97484;-43
2023/08/06 08:31:52;;;;;;;1.90;1.50;;;19.80;99.90;;;20.04;68.80;100001.03;4927110;28;98811;-46
2023/08/06 08:34:18;;;;;;;1.57;1.10;;;19.80;99.90;;;20.05;68.98;100005.41;4926560;28;103591;-42
2023/08/06 08:36:47;;;;;;;2.17;1.30;;;19.80;99.90;;;20.06;69.95;100001.75;4904916;28;98367;-45
2023/08/06 08:39:14;;;;;;;1.57;1.30;;;19.80;99.90;;;20.06;69.16;100012.47;4919539;28;96936;-41
2023/08/06 08:41:40;;;;;;;1.40;1.10;;;19.80;99.90;;;20.05;68.87;100010.75;4929248;28;97546;-40
2023/08/06 08:44:12;;;;;;;1.63;1.30;;;19.80;99.90;;;20.08;69.90;100008.66;4925220;28;98034;-40
2023/08/06 08:46:41;;;;;;;2.57;1.27;;;19.90;99.90;;;20.11;68.05;100015.63;4923672;28;97656;-44
2023/08/06 08:49:07;;;;;;;3.03;1.43;;;19.90;99.90;;;20.08;68.23;100013.16;4905037;28;97062;-40
2023/08/06 08:51:37;;;;;;;1.30;1.17;;;19.90;99.90;;;20.05;68.38;100018.78;4910559;28;97649;-40
2023/08/06 08:54:08;;;;;;;1.50;1.20;;;19.80;99.90;;;20.04;69.03;100017.09;4923750;28;97861;-42
2023/08/06 08:56:34;;;;;;;1.73;1.20;;;19.80;99.90;;;20.04;69.59;100019.78;4924245;28;97762;-42
2023/08/06 08:59:00;;;;;;;2.23;1.03;;;19.80;99.90;;;20.05;68.02;100021.47;4925572;28;98640;-40
2023/08/06 09:01:28;;;;;;;1.30;1.20;;;19.80;99.90;;;20.08;69.57;100029.22;4908798;28;98687;-41
2023/08/06 09:03:57;;;;;;;1.90;1.70;;;19.90;99.90;;;20.07;70.80;100027.53;4911886;28;99683;-40
2023/08/06 09:06:28;;;;;;;2.17;1.20;;;19.80;99.90;;;19.95;71.81;100026.75;4924644;28;97470;-41
2023/08/06 09:09:17;;;;;;;3.00;1.60;;;19.80;99.90;;;19.85;73.83;100040.06;4904607;28;97032;-43
2023/08/06 09:11:44;;;;;;;2.93;2.07;;;19.70;99.90;;;19.73;73.54;100041.09;4924615;28;98187;-40
2023/08/06 09:14:12;;;;;;;2.57;2.10;;;19.60;99.90;;;19.68;75.53;100043.31;4923051;28;97532;-41
2023/08/06 09:16:38;;;;;;;3.73;2.27;;;19.50;99.90;;;19.64;76.83;100041.00;4925217;28;98541;-41
2023/08/06 09:19:17;;;;;;;2.03;1.50;;;19.40;99.90;;;19.60;76.05;100040.41;4924654;28;97842;-41
2023/08/06 09:21:45;;;;;;;2.43;2.00;;;19.40;99.90;;;19.57;77.18;100035.31;4923778;28;98764;-41
2023/08/06 09:24:12;;;;;;;2.13;1.93;;;19.40;99.90;;;19.58;77.23;100043.22;4925856;28;98271;-40
2023/08/06 09:26:44;;;;;;;2.33;1.50;;;19.40;99.90;;;19.59;75.80;100044.06;4926428;28;97066;-40
2023/08/06 09:29:14;;;;;;;1.60;1.13;;;19.40;99.90;;;19.67;74.00;100044.25;4924545;28;97534;-41
2023/08/06 09:31:45;;;;;;;1.20;1.00;;;19.40;99.90;;;19.62;75.39;100041.13;4923391;28;97366;-40
2023/08/06 09:34:19;;;;;;;1.60;1.20;;;19.40;99.90;;;19.65;72.77;100046.22;4922445;28;97258;-44
2023/08/06 09:36:54;;;;;;;2.03;1.50;;;19.50;99.90;;;19.73;71.36;100041.09;4922851;28;97379;-42
2023/08/06 09:39:29;;;;;;;2.73;1.50;;;19.50;99.90;;;19.68;72.32;100043.31;4923473;28;97124;-40
2023/08/06 09:42:01;;;;;;;1.90;1.20;;;19.50;99.90;;;19.68;70.99;100048.66;4921079;28;103568;-41
2023/08/06 09:44:29;;;;;;;2.13;1.87;;;19.50;99.90;;;19.70;72.50;100046.72;4925358;28;98303;-40
2023/08/06 09:46:57;;;;;;;2.03;1.60;;;19.50;99.90;;;19.75;69.60;100044.47;4924344;28;97362;-41
2023/08/06 09:49:32;;;;;;;1.90;1.70;;;19.60;99.90;;;19.83;68.86;100058.09;4925612;28;97085;-41
2023/08/06 09:51:59;;;;;;;1.70;1.27;;;19.70;99.90;;;19.87;72.83;100054.16;4926803;28;97300;-40
2023/08/06 09:54:30;;;;;;;2.00;1.47;;;19.80;99.90;;;19.87;68.08;100054.16;4909570;28;97553;-40
2023/08/06 09:56:56;;;;;;;2.13;2.03;;;19.80;99.90;;;19.92;69.99;100057.28;4924461;28;97306;-43
2023/08/06 09:59:25;;;;;;;2.60;1.60;;;19.80;99.90;;;19.97;68.67;100074.81;4926817;28;102913;-48
2023/08/06 10:01:51;;;;;;;3.97;2.20;;;19.90;99.90;;;19.99;72.21;100072.88;4929859;28;102986;-44
2023/08/06 10:04:17;;;;;;;3.20;1.90;;;19.90;99.90;;;19.97;73.01;100080.19;4913195;28;105465;-41
2023/08/06 10:06:47;;;;;;;3.30;1.40;;;19.90;99.90;;;19.94;71.96;100083.09;4928618;28;96981;-40
2023/08/06 10:09:14;;;;;;;4.07;1.50;;;19.80;99.90;;;19.88;71.32;100082.63;4929771;28;97032;-40
2023/08/06 10:11:42;;;;;;;1.97;0.83;;;19.80;99.90;;;19.61;71.06;100085.75;4925739;28;96951;-42
2023/08/06 10:14:16;;;;;;;0.50;0.47;;;19.60;99.90;;;19.37;71.18;100086.88;4911389;28;98500;-40